Friendship — V7RW8 — position and weather

sailwx.info

Track history (hours):
 
Tides and Currents Weather Stations Pressure Air Temp Water Temp Dewpoint Dewpoint Depression Visibility Wind Speed Wind Dir Waves Ship Positions

Friendship

Last reported at 2018-Jul-09 05:10 UTC. Time now 2018-Jul-22 02:57 UTC.
Position N 01°26' E 103°09'.
Warning: this ship's position is 12 days out of date.

; draft 10.3 m.

Type: Cargo ship. MMSI: 538003592.

Date/timePositionNaut miles runAvg speedWind from/ knotsBaromVisibWave heightAir tempDewpointWater temp
2018-Jul-09 05:10N 01°26' E 103°09'517.1
2018-Jul-09 04:53N 01°23' E 103°12'717.2
2018-Jul-09 04:28N 01°19' E 103°18'817.2
2018-Jul-09 03:59N 01°14' E 103°25'816.2
2018-Jul-09 03:30N 01°13' E 103°33'815.8
2018-Jul-09 03:01N 01°11' E 103°40'712.9
2018-Jul-09 02:30N 01°10' E 103°47'713.4
2018-Jul-09 02:01N 01°13' E 103°53'713.6
2018-Jul-09 01:30N 01°15' E 103°59'814.6
2018-Jul-09 00:59N 01°16' E 104°07'714.9
2018-Jul-09 00:30N 01°17' E 104°14'814.7
2018-Jul-08 23:58N 01°20' E 104°21'715.1
2018-Jul-08 23:30N 01°24' E 104°27'  
2018-Jun-30 03:19N 30°33' E 121°28'615.0
2018-Jun-30 02:54N 30°31' E 121°35'615.6
2018-Jun-30 02:30N 30°29' E 121°42'816.0
2018-Jun-30 01:59N 30°28' E 121°51'714.0
2018-Jun-30 01:30N 30°30' E 121°59'  
Track history (hours):
 
Tides and Currents Weather Stations Pressure Air Temp Water Temp Dewpoint Dewpoint Depression Visibility Wind Speed Wind Dir Waves Ship Positions

Friendship

Last reported at 2018-Jul-09 05:10 UTC. Time now 2018-Jul-22 02:57 UTC.
Position N 01°26' E 103°09'.
Warning: this ship's position is 12 days out of date.

; draft 10.3 m.

Type: Cargo ship. MMSI: 538003592.

Date/timePositionNaut miles runAvg speedWind from/ knotsBaromVisibWave heightAir tempDewpointWater temp
2018-Jul-09 05:10N 01°26' E 103°09'517.1
2018-Jul-09 04:53N 01°23' E 103°12'717.2
2018-Jul-09 04:28N 01°19' E 103°18'817.2
2018-Jul-09 03:59N 01°14' E 103°25'816.2
2018-Jul-09 03:30N 01°13' E 103°33'815.8
2018-Jul-09 03:01N 01°11' E 103°40'712.9
2018-Jul-09 02:30N 01°10' E 103°47'713.4
2018-Jul-09 02:01N 01°13' E 103°53'713.6
2018-Jul-09 01:30N 01°15' E 103°59'814.6
2018-Jul-09 00:59N 01°16' E 104°07'714.9
2018-Jul-09 00:30N 01°17' E 104°14'814.7
2018-Jul-08 23:58N 01°20' E 104°21'715.1
2018-Jul-08 23:30N 01°24' E 104°27'  
2018-Jun-30 03:19N 30°33' E 121°28'615.0
2018-Jun-30 02:54N 30°31' E 121°35'615.6
2018-Jun-30 02:30N 30°29' E 121°42'816.0
2018-Jun-30 01:59N 30°28' E 121°51'714.0
2018-Jun-30 01:30N 30°30' E 121°59'  

Dump ship's entire track history